sensor_id;sensor_type;location;lat;lon;timestamp;P1;durP1;ratioP1;P2;durP2;ratioP2
68074;SDS011;54864;52.002;5.468;2022-07-24T00:01:17;8.63;;;5.43;;
68074;SDS011;54864;52.002;5.468;2022-07-24T00:02:41;8.98;;;5.00;;
68074;SDS011;54864;52.002;5.468;2022-07-24T00:04:03;5.72;;;5.20;;
68074;SDS011;54864;52.002;5.468;2022-07-24T00:05:24;6.35;;;5.38;;
68074;SDS011;54864;52.002;5.468;2022-07-24T00:06:46;8.38;;;5.38;;
68074;SDS011;54864;52.002;5.468;2022-07-24T00:08:08;7.60;;;5.60;;
68074;SDS011;54864;52.002;5.468;2022-07-24T00:09:30;10.98;;;5.78;;
68074;SDS011;54864;52.002;5.468;2022-07-24T00:10:52;8.05;;;5.90;;
68074;SDS011;54864;52.002;5.468;2022-07-24T00:12:14;6.82;;;5.53;;
68074;SDS011;54864;52.002;5.468;2022-07-24T00:13:36;10.45;;;5.95;;
68074;SDS011;54864;52.002;5.468;2022-07-24T00:14:58;7.93;;;5.88;;
68074;SDS011;54864;52.002;5.468;2022-07-24T00:16:20;11.80;;;5.97;;
68074;SDS011;54864;52.002;5.468;2022-07-24T00:17:42;10.23;;;5.75;;
68074;SDS011;54864;52.002;5.468;2022-07-24T00:19:04;7.17;;;5.70;;
68074;SDS011;54864;52.002;5.468;2022-07-24T00:20:26;7.95;;;5.82;;
68074;SDS011;54864;52.002;5.468;2022-07-24T00:21:48;10.52;;;6.10;;
68074;SDS011;54864;52.002;5.468;2022-07-24T00:23:10;9.07;;;6.15;;
68074;SDS011;54864;52.002;5.468;2022-07-24T00:24:32;8.35;;;5.72;;
68074;SDS011;54864;52.002;5.468;2022-07-24T00:25:54;8.35;;;6.03;;
68074;SDS011;54864;52.002;5.468;2022-07-24T00:27:15;8.02;;;5.90;;
68074;SDS011;54864;52.002;5.468;2022-07-24T00:28:37;9.60;;;5.97;;
68074;SDS011;54864;52.002;5.468;2022-07-24T00:30:00;9.98;;;6.40;;
68074;SDS011;54864;52.002;5.468;2022-07-24T00:31:22;9.02;;;6.03;;
68074;SDS011;54864;52.002;5.468;2022-07-24T00:32:44;7.63;;;5.63;;
68074;SDS011;54864;52.002;5.468;2022-07-24T00:34:05;9.40;;;6.00;;
68074;SDS011;54864;52.002;5.468;2022-07-24T00:35:27;9.82;;;5.70;;
68074;SDS011;54864;52.002;5.468;2022-07-24T00:36:49;9.80;;;5.80;;
68074;SDS011;54864;52.002;5.468;2022-07-24T00:38:10;8.50;;;5.90;;
68074;SDS011;54864;52.002;5.468;2022-07-24T00:39:34;7.50;;;6.10;;
68074;SDS011;54864;52.002;5.468;2022-07-24T00:40:56;7.85;;;6.05;;
68074;SDS011;54864;52.002;5.468;2022-07-24T00:42:18;9.23;;;6.70;;
68074;SDS011;54864;52.002;5.468;2022-07-24T00:43:57;10.05;;;7.45;;
68074;SDS011;54864;52.002;5.468;2022-07-24T00:45:20;11.98;;;6.82;;
68074;SDS011;54864;52.002;5.468;2022-07-24T00:46:43;10.48;;;6.60;;
68074;SDS011;54864;52.002;5.468;2022-07-24T00:48:06;8.50;;;6.40;;
68074;SDS011;54864;52.002;5.468;2022-07-24T00:49:28;9.85;;;6.57;;
68074;SDS011;54864;52.002;5.468;2022-07-24T00:50:49;10.75;;;6.72;;
68074;SDS011;54864;52.002;5.468;2022-07-24T00:52:11;7.82;;;6.35;;
68074;SDS011;54864;52.002;5.468;2022-07-24T00:53:33;9.85;;;6.75;;
68074;SDS011;54864;52.002;5.468;2022-07-24T00:54:56;9.60;;;6.70;;
68074;SDS011;54864;52.002;5.468;2022-07-24T00:56:18;10.63;;;7.50;;
68074;SDS011;54864;52.002;5.468;2022-07-24T00:57:40;8.10;;;7.00;;
68074;SDS011;54864;52.002;5.468;2022-07-24T00:59:06;11.15;;;7.90;;
68074;SDS011;54864;52.002;5.468;2022-07-24T01:00:27;10.02;;;7.20;;
68074;SDS011;54864;52.002;5.468;2022-07-24T01:01:49;9.50;;;7.40;;
68074;SDS011;54864;52.002;5.468;2022-07-24T01:03:10;9.52;;;7.47;;
68074;SDS011;54864;52.002;5.468;2022-07-24T01:04:32;9.88;;;8.15;;
68074;SDS011;54864;52.002;5.468;2022-07-24T01:05:53;12.27;;;7.68;;
68074;SDS011;54864;52.002;5.468;2022-07-24T01:07:16;10.77;;;8.32;;
68074;SDS011;54864;52.002;5.468;2022-07-24T01:08:38;10.50;;;8.40;;
68074;SDS011;54864;52.002;5.468;2022-07-24T01:10:02;11.43;;;8.95;;
68074;SDS011;54864;52.002;5.468;2022-07-24T01:11:24;11.30;;;8.23;;
68074;SDS011;54864;52.002;5.468;2022-07-24T01:12:47;11.07;;;8.73;;
68074;SDS011;54864;52.002;5.468;2022-07-24T01:14:09;11.38;;;8.68;;
68074;SDS011;54864;52.002;5.468;2022-07-24T01:15:31;12.73;;;8.85;;
68074;SDS011;54864;52.002;5.468;2022-07-24T01:16:53;10.77;;;8.43;;
68074;SDS011;54864;52.002;5.468;2022-07-24T01:18:14;11.77;;;8.55;;
68074;SDS011;54864;52.002;5.468;2022-07-24T01:19:38;16.95;;;8.85;;
68074;SDS011;54864;52.002;5.468;2022-07-24T01:21:01;12.03;;;8.67;;
68074;SDS011;54864;52.002;5.468;2022-07-24T01:22:23;14.60;;;8.98;;
68074;SDS011;54864;52.002;5.468;2022-07-24T01:23:46;10.05;;;8.88;;
68074;SDS011;54864;52.002;5.468;2022-07-24T01:25:08;10.65;;;9.20;;
68074;SDS011;54864;52.002;5.468;2022-07-24T01:26:31;13.57;;;9.98;;
68074;SDS011;54864;52.002;5.468;2022-07-24T01:27:53;9.90;;;8.85;;
68074;SDS011;54864;52.002;5.468;2022-07-24T01:29:14;10.90;;;8.80;;
68074;SDS011;54864;52.002;5.468;2022-07-24T01:30:37;11.05;;;8.90;;
68074;SDS011;54864;52.002;5.468;2022-07-24T01:31:58;11.13;;;8.43;;
68074;SDS011;54864;52.002;5.468;2022-07-24T01:33:20;10.63;;;8.35;;
68074;SDS011;54864;52.002;5.468;2022-07-24T01:34:42;13.83;;;8.77;;
68074;SDS011;54864;52.002;5.468;2022-07-24T01:36:05;11.20;;;8.45;;
68074;SDS011;54864;52.002;5.468;2022-07-24T01:37:26;11.25;;;8.18;;
68074;SDS011;54864;52.002;5.468;2022-07-24T01:38:48;11.65;;;8.80;;
68074;SDS011;54864;52.002;5.468;2022-07-24T01:40:11;10.95;;;8.68;;
68074;SDS011;54864;52.002;5.468;2022-07-24T01:41:33;11.02;;;9.15;;
68074;SDS011;54864;52.002;5.468;2022-07-24T01:42:55;11.25;;;8.88;;
68074;SDS011;54864;52.002;5.468;2022-07-24T01:44:17;11.30;;;9.43;;
68074;SDS011;54864;52.002;5.468;2022-07-24T01:45:39;12.18;;;9.13;;
68074;SDS011;54864;52.002;5.468;2022-07-24T01:47:01;13.10;;;8.95;;
68074;SDS011;54864;52.002;5.468;2022-07-24T01:48:23;11.73;;;9.32;;
68074;SDS011;54864;52.002;5.468;2022-07-24T01:49:44;11.60;;;9.20;;
68074;SDS011;54864;52.002;5.468;2022-07-24T01:51:07;14.68;;;10.27;;
68074;SDS011;54864;52.002;5.468;2022-07-24T01:52:30;14.38;;;10.25;;
68074;SDS011;54864;52.002;5.468;2022-07-24T01:53:51;14.60;;;11.13;;
68074;SDS011;54864;52.002;5.468;2022-07-24T01:55:13;14.70;;;10.77;;
68074;SDS011;54864;52.002;5.468;2022-07-24T01:56:35;13.10;;;10.32;;
68074;SDS011;54864;52.002;5.468;2022-07-24T01:57:57;12.00;;;10.38;;
68074;SDS011;54864;52.002;5.468;2022-07-24T01:59:18;12.70;;;10.55;;
68074;SDS011;54864;52.002;5.468;2022-07-24T02:00:40;13.93;;;10.43;;
68074;SDS011;54864;52.002;5.468;2022-07-24T02:02:02;11.90;;;9.63;;
68074;SDS011;54864;52.002;5.468;2022-07-24T02:03:24;16.15;;;10.15;;
68074;SDS011;54864;52.002;5.468;2022-07-24T02:04:45;14.38;;;9.30;;
68074;SDS011;54864;52.002;5.468;2022-07-24T02:06:08;11.43;;;9.43;;
68074;SDS011;54864;52.002;5.468;2022-07-24T02:07:29;12.45;;;9.60;;
68074;SDS011;54864;52.002;5.468;2022-07-24T02:08:51;14.52;;;9.20;;
68074;SDS011;54864;52.002;5.468;2022-07-24T02:10:13;16.17;;;8.93;;
68074;SDS011;54864;52.002;5.468;2022-07-24T02:11:34;10.98;;;8.23;;
68074;SDS011;54864;52.002;5.468;2022-07-24T02:12:57;11.77;;;7.57;;
68074;SDS011;54864;52.002;5.468;2022-07-24T02:14:18;11.75;;;7.78;;
68074;SDS011;54864;52.002;5.468;2022-07-24T02:15:40;11.05;;;8.95;;
68074;SDS011;54864;52.002;5.468;2022-07-24T02:17:04;12.10;;;8.60;;
68074;SDS011;54864;52.002;5.468;2022-07-24T02:18:27;15.82;;;8.93;;
68074;SDS011;54864;52.002;5.468;2022-07-24T02:19:49;11.65;;;9.55;;
68074;SDS011;54864;52.002;5.468;2022-07-24T02:21:12;13.00;;;8.98;;
68074;SDS011;54864;52.002;5.468;2022-07-24T02:22:34;11.75;;;8.32;;
68074;SDS011;54864;52.002;5.468;2022-07-24T02:23:55;10.20;;;8.95;;
68074;SDS011;54864;52.002;5.468;2022-07-24T02:25:19;12.43;;;9.85;;
68074;SDS011;54864;52.002;5.468;2022-07-24T02:26:41;14.52;;;10.45;;
68074;SDS011;54864;52.002;5.468;2022-07-24T02:28:04;15.30;;;11.57;;
68074;SDS011;54864;52.002;5.468;2022-07-24T02:29:25;14.45;;;11.80;;
68074;SDS011;54864;52.002;5.468;2022-07-24T02:30:49;15.68;;;11.70;;
68074;SDS011;54864;52.002;5.468;2022-07-24T02:32:12;18.73;;;11.27;;
68074;SDS011;54864;52.002;5.468;2022-07-24T02:33:33;15.70;;;11.75;;
68074;SDS011;54864;52.002;5.468;2022-07-24T02:34:55;14.90;;;11.38;;
68074;SDS011;54864;52.002;5.468;2022-07-24T02:36:19;20.48;;;12.95;;
68074;SDS011;54864;52.002;5.468;2022-07-24T02:37:42;17.35;;;12.82;;
68074;SDS011;54864;52.002;5.468;2022-07-24T02:39:05;16.50;;;13.02;;
68074;SDS011;54864;52.002;5.468;2022-07-24T02:40:27;15.98;;;12.73;;
68074;SDS011;54864;52.002;5.468;2022-07-24T02:41:50;20.58;;;13.95;;
68074;SDS011;54864;52.002;5.468;2022-07-24T02:43:12;17.92;;;12.75;;
68074;SDS011;54864;52.002;5.468;2022-07-24T02:44:33;16.92;;;13.13;;
68074;SDS011;54864;52.002;5.468;2022-07-24T02:45:55;17.63;;;12.90;;
68074;SDS011;54864;52.002;5.468;2022-07-24T02:47:16;16.73;;;12.85;;
68074;SDS011;54864;52.002;5.468;2022-07-24T02:48:38;19.57;;;13.57;;
68074;SDS011;54864;52.002;5.468;2022-07-24T02:49:59;17.25;;;13.38;;
68074;SDS011;54864;52.002;5.468;2022-07-24T02:51:23;17.85;;;12.88;;
68074;SDS011;54864;52.002;5.468;2022-07-24T02:52:45;15.02;;;12.43;;
68074;SDS011;54864;52.002;5.468;2022-07-24T02:54:07;16.50;;;12.98;;
68074;SDS011;54864;52.002;5.468;2022-07-24T02:55:29;22.10;;;13.70;;
68074;SDS011;54864;52.002;5.468;2022-07-24T02:56:51;20.27;;;13.60;;
68074;SDS011;54864;52.002;5.468;2022-07-24T02:58:12;19.48;;;13.25;;
68074;SDS011;54864;52.002;5.468;2022-07-24T02:59:35;18.23;;;13.83;;
68074;SDS011;54864;52.002;5.468;2022-07-24T03:00:56;17.73;;;13.55;;
68074;SDS011;54864;52.002;5.468;2022-07-24T03:02:18;18.73;;;13.80;;
68074;SDS011;54864;52.002;5.468;2022-07-24T03:03:40;16.77;;;13.10;;
68074;SDS011;54864;52.002;5.468;2022-07-24T03:05:02;19.85;;;14.32;;
68074;SDS011;54864;52.002;5.468;2022-07-24T03:06:27;19.75;;;14.15;;
68074;SDS011;54864;52.002;5.468;2022-07-24T03:07:49;17.30;;;14.10;;
68074;SDS011;54864;52.002;5.468;2022-07-24T03:09:11;21.08;;;14.50;;
68074;SDS011;54864;52.002;5.468;2022-07-24T03:10:32;20.35;;;15.48;;
68074;SDS011;54864;52.002;5.468;2022-07-24T03:11:54;17.67;;;14.25;;
68074;SDS011;54864;52.002;5.468;2022-07-24T03:13:16;19.00;;;14.90;;
68074;SDS011;54864;52.002;5.468;2022-07-24T03:14:38;19.30;;;14.68;;
68074;SDS011;54864;52.002;5.468;2022-07-24T03:15:59;22.77;;;15.77;;
68074;SDS011;54864;52.002;5.468;2022-07-24T03:17:21;21.58;;;15.45;;
68074;SDS011;54864;52.002;5.468;2022-07-24T03:18:43;17.30;;;14.23;;
68074;SDS011;54864;52.002;5.468;2022-07-24T03:20:06;23.38;;;14.95;;
68074;SDS011;54864;52.002;5.468;2022-07-24T03:21:31;21.67;;;15.82;;
68074;SDS011;54864;52.002;5.468;2022-07-24T03:22:52;19.42;;;15.80;;
68074;SDS011;54864;52.002;5.468;2022-07-24T03:24:15;22.10;;;16.30;;
68074;SDS011;54864;52.002;5.468;2022-07-24T03:25:37;23.77;;;16.00;;
68074;SDS011;54864;52.002;5.468;2022-07-24T03:26:59;22.38;;;16.55;;
68074;SDS011;54864;52.002;5.468;2022-07-24T03:28:21;21.23;;;16.23;;
68074;SDS011;54864;52.002;5.468;2022-07-24T03:29:43;22.67;;;16.70;;
68074;SDS011;54864;52.002;5.468;2022-07-24T03:31:05;21.75;;;16.00;;
68074;SDS011;54864;52.002;5.468;2022-07-24T03:32:27;22.17;;;16.83;;
68074;SDS011;54864;52.002;5.468;2022-07-24T03:33:48;24.48;;;17.50;;
68074;SDS011;54864;52.002;5.468;2022-07-24T03:35:10;21.95;;;16.50;;
68074;SDS011;54864;52.002;5.468;2022-07-24T03:36:32;24.95;;;16.50;;
68074;SDS011;54864;52.002;5.468;2022-07-24T03:37:54;21.75;;;17.15;;
68074;SDS011;54864;52.002;5.468;2022-07-24T03:39:17;22.02;;;16.30;;
68074;SDS011;54864;52.002;5.468;2022-07-24T03:40:39;21.95;;;16.90;;
68074;SDS011;54864;52.002;5.468;2022-07-24T03:42:01;23.90;;;17.63;;
68074;SDS011;54864;52.002;5.468;2022-07-24T03:43:23;26.75;;;17.40;;
68074;SDS011;54864;52.002;5.468;2022-07-24T03:44:44;24.77;;;18.23;;
68074;SDS011;54864;52.002;5.468;2022-07-24T03:46:06;22.90;;;17.73;;
68074;SDS011;54864;52.002;5.468;2022-07-24T03:47:28;23.63;;;17.63;;
68074;SDS011;54864;52.002;5.468;2022-07-24T03:48:50;21.65;;;17.25;;
68074;SDS011;54864;52.002;5.468;2022-07-24T03:50:11;23.23;;;17.52;;
68074;SDS011;54864;52.002;5.468;2022-07-24T03:51:35;23.27;;;17.40;;
68074;SDS011;54864;52.002;5.468;2022-07-24T03:52:56;25.42;;;18.20;;
68074;SDS011;54864;52.002;5.468;2022-07-24T03:54:18;22.90;;;17.95;;
68074;SDS011;54864;52.002;5.468;2022-07-24T03:55:39;26.40;;;17.70;;
68074;SDS011;54864;52.002;5.468;2022-07-24T03:57:01;25.55;;;18.58;;
68074;SDS011;54864;52.002;5.468;2022-07-24T03:58:22;28.15;;;17.63;;
68074;SDS011;54864;52.002;5.468;2022-07-24T03:59:43;24.05;;;16.52;;
68074;SDS011;54864;52.002;5.468;2022-07-24T04:01:04;24.58;;;17.10;;
68074;SDS011;54864;52.002;5.468;2022-07-24T04:02:26;21.73;;;17.65;;
68074;SDS011;54864;52.002;5.468;2022-07-24T04:03:47;24.30;;;17.67;;
68074;SDS011;54864;52.002;5.468;2022-07-24T04:05:09;40.03;;;18.48;;
68074;SDS011;54864;52.002;5.468;2022-07-24T04:06:35;64.55;;;19.70;;
68074;SDS011;54864;52.002;5.468;2022-07-24T04:07:57;55.63;;;19.02;;
68074;SDS011;54864;52.002;5.468;2022-07-24T04:09:18;39.33;;;19.23;;
68074;SDS011;54864;52.002;5.468;2022-07-24T04:10:40;29.73;;;19.33;;
68074;SDS011;54864;52.002;5.468;2022-07-24T04:12:02;29.45;;;19.45;;
68074;SDS011;54864;52.002;5.468;2022-07-24T04:13:25;25.40;;;19.13;;
68074;SDS011;54864;52.002;5.468;2022-07-24T04:14:46;29.65;;;21.38;;
68074;SDS011;54864;52.002;5.468;2022-07-24T04:16:08;29.50;;;20.38;;
68074;SDS011;54864;52.002;5.468;2022-07-24T04:17:29;27.63;;;20.55;;
68074;SDS011;54864;52.002;5.468;2022-07-24T04:18:51;30.83;;;19.83;;
68074;SDS011;54864;52.002;5.468;2022-07-24T04:20:13;24.45;;;19.45;;
68074;SDS011;54864;52.002;5.468;2022-07-24T04:21:37;25.77;;;19.00;;
68074;SDS011;54864;52.002;5.468;2022-07-24T04:23:00;28.25;;;19.92;;
68074;SDS011;54864;52.002;5.468;2022-07-24T04:24:22;27.13;;;19.23;;
68074;SDS011;54864;52.002;5.468;2022-07-24T04:25:44;24.80;;;18.53;;
68074;SDS011;54864;52.002;5.468;2022-07-24T04:27:05;29.27;;;18.08;;
68074;SDS011;54864;52.002;5.468;2022-07-24T04:28:27;24.40;;;18.60;;
68074;SDS011;54864;52.002;5.468;2022-07-24T04:29:49;22.92;;;18.17;;
68074;SDS011;54864;52.002;5.468;2022-07-24T04:31:11;27.00;;;19.98;;
68074;SDS011;54864;52.002;5.468;2022-07-24T04:32:33;26.67;;;19.13;;
68074;SDS011;54864;52.002;5.468;2022-07-24T04:33:55;24.35;;;18.02;;
68074;SDS011;54864;52.002;5.468;2022-07-24T04:35:17;25.10;;;18.52;;
68074;SDS011;54864;52.002;5.468;2022-07-24T04:36:41;23.38;;;18.50;;
68074;SDS011;54864;52.002;5.468;2022-07-24T04:38:03;26.67;;;19.70;;
68074;SDS011;54864;52.002;5.468;2022-07-24T04:39:24;26.17;;;19.13;;
68074;SDS011;54864;52.002;5.468;2022-07-24T04:40:46;25.15;;;18.88;;
68074;SDS011;54864;52.002;5.468;2022-07-24T04:42:08;26.70;;;19.58;;
68074;SDS011;54864;52.002;5.468;2022-07-24T04:43:30;22.90;;;18.08;;
68074;SDS011;54864;52.002;5.468;2022-07-24T04:44:52;26.10;;;19.92;;
68074;SDS011;54864;52.002;5.468;2022-07-24T04:46:14;27.42;;;19.15;;
68074;SDS011;54864;52.002;5.468;2022-07-24T04:47:35;25.88;;;20.48;;
68074;SDS011;54864;52.002;5.468;2022-07-24T04:48:57;28.73;;;19.85;;
68074;SDS011;54864;52.002;5.468;2022-07-24T04:50:20;26.88;;;20.65;;
68074;SDS011;54864;52.002;5.468;2022-07-24T04:51:43;25.85;;;20.33;;
68074;SDS011;54864;52.002;5.468;2022-07-24T04:53:05;26.63;;;19.65;;
68074;SDS011;54864;52.002;5.468;2022-07-24T04:54:27;24.23;;;18.92;;
68074;SDS011;54864;52.002;5.468;2022-07-24T04:55:49;28.25;;;20.80;;
68074;SDS011;54864;52.002;5.468;2022-07-24T04:57:10;25.65;;;20.42;;
68074;SDS011;54864;52.002;5.468;2022-07-24T04:58:32;26.65;;;20.17;;
68074;SDS011;54864;52.002;5.468;2022-07-24T04:59:54;28.17;;;21.48;;
68074;SDS011;54864;52.002;5.468;2022-07-24T05:01:16;25.98;;;19.80;;
68074;SDS011;54864;52.002;5.468;2022-07-24T05:02:38;27.35;;;21.17;;
68074;SDS011;54864;52.002;5.468;2022-07-24T05:03:59;23.13;;;19.30;;
68074;SDS011;54864;52.002;5.468;2022-07-24T05:05:21;27.80;;;20.35;;
68074;SDS011;54864;52.002;5.468;2022-07-24T05:06:45;32.15;;;21.15;;
68074;SDS011;54864;52.002;5.468;2022-07-24T05:08:07;27.83;;;20.63;;
68074;SDS011;54864;52.002;5.468;2022-07-24T05:09:28;28.85;;;21.42;;
68074;SDS011;54864;52.002;5.468;2022-07-24T05:10:50;26.85;;;21.77;;
68074;SDS011;54864;52.002;5.468;2022-07-24T05:12:12;27.63;;;20.58;;
68074;SDS011;54864;52.002;5.468;2022-07-24T05:13:34;25.33;;;19.35;;
68074;SDS011;54864;52.002;5.468;2022-07-24T05:14:56;24.92;;;20.63;;
68074;SDS011;54864;52.002;5.468;2022-07-24T05:16:18;26.20;;;20.25;;
68074;SDS011;54864;52.002;5.468;2022-07-24T05:17:40;26.58;;;20.75;;
68074;SDS011;54864;52.002;5.468;2022-07-24T05:19:01;29.67;;;20.98;;
68074;SDS011;54864;52.002;5.468;2022-07-24T05:20:23;28.63;;;21.85;;
68074;SDS011;54864;52.002;5.468;2022-07-24T05:21:46;29.30;;;21.70;;
68074;SDS011;54864;52.002;5.468;2022-07-24T05:23:08;25.02;;;20.48;;
68074;SDS011;54864;52.002;5.468;2022-07-24T05:24:30;27.65;;;22.50;;
68074;SDS011;54864;52.002;5.468;2022-07-24T05:25:52;28.80;;;22.27;;
68074;SDS011;54864;52.002;5.468;2022-07-24T05:27:14;25.13;;;20.13;;
68074;SDS011;54864;52.002;5.468;2022-07-24T05:28:36;32.20;;;24.00;;
68074;SDS011;54864;52.002;5.468;2022-07-24T05:29:58;26.00;;;21.67;;
68074;SDS011;54864;52.002;5.468;2022-07-24T05:31:20;30.83;;;22.45;;
68074;SDS011;54864;52.002;5.468;2022-07-24T05:32:42;30.80;;;22.85;;
68074;SDS011;54864;52.002;5.468;2022-07-24T05:34:04;29.10;;;22.20;;
68074;SDS011;54864;52.002;5.468;2022-07-24T05:35:26;27.75;;;22.73;;
68074;SDS011;54864;52.002;5.468;2022-07-24T05:36:50;34.50;;;23.38;;
68074;SDS011;54864;52.002;5.468;2022-07-24T05:38:11;34.95;;;25.15;;
68074;SDS011;54864;52.002;5.468;2022-07-24T05:39:33;30.40;;;24.08;;
68074;SDS011;54864;52.002;5.468;2022-07-24T05:40:54;31.42;;;23.42;;
68074;SDS011;54864;52.002;5.468;2022-07-24T05:42:16;32.00;;;25.17;;
68074;SDS011;54864;52.002;5.468;2022-07-24T05:43:38;31.23;;;23.75;;
68074;SDS011;54864;52.002;5.468;2022-07-24T05:45:00;32.42;;;24.10;;
68074;SDS011;54864;52.002;5.468;2022-07-24T05:46:21;35.75;;;25.88;;
68074;SDS011;54864;52.002;5.468;2022-07-24T05:47:43;32.50;;;25.20;;
68074;SDS011;54864;52.002;5.468;2022-07-24T05:49:04;34.80;;;25.77;;
68074;SDS011;54864;52.002;5.468;2022-07-24T05:50:26;36.10;;;26.50;;
68074;SDS011;54864;52.002;5.468;2022-07-24T05:51:49;39.58;;;27.35;;
68074;SDS011;54864;52.002;5.468;2022-07-24T05:53:11;36.90;;;28.08;;
68074;SDS011;54864;52.002;5.468;2022-07-24T05:54:33;38.67;;;27.35;;
68074;SDS011;54864;52.002;5.468;2022-07-24T05:55:55;37.95;;;27.85;;
68074;SDS011;54864;52.002;5.468;2022-07-24T05:57:17;42.33;;;27.23;;
68074;SDS011;54864;52.002;5.468;2022-07-24T05:58:39;42.85;;;27.65;;
68074;SDS011;54864;52.002;5.468;2022-07-24T06:00:02;39.40;;;28.10;;
68074;SDS011;54864;52.002;5.468;2022-07-24T06:01:24;40.47;;;26.10;;
68074;SDS011;54864;52.002;5.468;2022-07-24T06:02:47;39.15;;;26.13;;
68074;SDS011;54864;52.002;5.468;2022-07-24T06:04:09;40.50;;;26.70;;
68074;SDS011;54864;52.002;5.468;2022-07-24T06:05:31;40.22;;;25.48;;
68074;SDS011;54864;52.002;5.468;2022-07-24T06:06:54;39.45;;;26.17;;
68074;SDS011;54864;52.002;5.468;2022-07-24T06:08:16;36.80;;;25.77;;
68074;SDS011;54864;52.002;5.468;2022-07-24T06:09:38;34.20;;;24.70;;
68074;SDS011;54864;52.002;5.468;2022-07-24T06:11:00;34.25;;;24.48;;
68074;SDS011;54864;52.002;5.468;2022-07-24T06:12:22;39.00;;;24.63;;
68074;SDS011;54864;52.002;5.468;2022-07-24T06:13:44;36.78;;;25.52;;
68074;SDS011;54864;52.002;5.468;2022-07-24T06:15:06;34.28;;;24.52;;
68074;SDS011;54864;52.002;5.468;2022-07-24T06:16:29;33.08;;;24.13;;
68074;SDS011;54864;52.002;5.468;2022-07-24T06:17:51;38.70;;;24.67;;
68074;SDS011;54864;52.002;5.468;2022-07-24T06:19:13;33.80;;;23.95;;
68074;SDS011;54864;52.002;5.468;2022-07-24T06:20:35;29.10;;;22.83;;
68074;SDS011;54864;52.002;5.468;2022-07-24T06:21:57;36.10;;;24.65;;
68074;SDS011;54864;52.002;5.468;2022-07-24T06:23:19;33.60;;;22.37;;
68074;SDS011;54864;52.002;5.468;2022-07-24T06:24:41;31.65;;;22.05;;
68074;SDS011;54864;52.002;5.468;2022-07-24T06:26:03;31.65;;;21.13;;
68074;SDS011;54864;52.002;5.468;2022-07-24T06:27:25;28.20;;;20.70;;
68074;SDS011;54864;52.002;5.468;2022-07-24T06:28:46;35.15;;;21.73;;
68074;SDS011;54864;52.002;5.468;2022-07-24T06:30:11;28.60;;;20.75;;
68074;SDS011;54864;52.002;5.468;2022-07-24T06:31:34;37.03;;;20.75;;
68074;SDS011;54864;52.002;5.468;2022-07-24T06:32:56;30.10;;;21.17;;
68074;SDS011;54864;52.002;5.468;2022-07-24T06:34:19;30.38;;;20.42;;
68074;SDS011;54864;52.002;5.468;2022-07-24T06:35:44;29.42;;;19.60;;
68074;SDS011;54864;52.002;5.468;2022-07-24T06:37:07;27.42;;;19.10;;
68074;SDS011;54864;52.002;5.468;2022-07-24T06:38:29;26.13;;;19.02;;
68074;SDS011;54864;52.002;5.468;2022-07-24T06:39:51;23.90;;;17.02;;
68074;SDS011;54864;52.002;5.468;2022-07-24T06:41:13;26.45;;;17.00;;
68074;SDS011;54864;52.002;5.468;2022-07-24T06:42:35;23.23;;;16.98;;
68074;SDS011;54864;52.002;5.468;2022-07-24T06:43:57;24.88;;;17.17;;
68074;SDS011;54864;52.002;5.468;2022-07-24T06:45:19;21.17;;;15.95;;
68074;SDS011;54864;52.002;5.468;2022-07-24T06:46:42;24.38;;;16.60;;
68074;SDS011;54864;52.002;5.468;2022-07-24T06:48:04;23.17;;;17.08;;
68074;SDS011;54864;52.002;5.468;2022-07-24T06:49:26;23.30;;;16.17;;
68074;SDS011;54864;52.002;5.468;2022-07-24T06:50:47;24.38;;;15.90;;
68074;SDS011;54864;52.002;5.468;2022-07-24T06:52:10;22.77;;;15.50;;
68074;SDS011;54864;52.002;5.468;2022-07-24T06:53:32;22.65;;;16.13;;
68074;SDS011;54864;52.002;5.468;2022-07-24T06:54:54;24.67;;;15.32;;
68074;SDS011;54864;52.002;5.468;2022-07-24T06:56:17;20.40;;;14.88;;
68074;SDS011;54864;52.002;5.468;2022-07-24T06:57:39;23.05;;;15.20;;
68074;SDS011;54864;52.002;5.468;2022-07-24T06:59:01;20.38;;;14.65;;
68074;SDS011;54864;52.002;5.468;2022-07-24T07:00:23;20.55;;;14.05;;
68074;SDS011;54864;52.002;5.468;2022-07-24T07:01:45;18.83;;;14.15;;
68074;SDS011;54864;52.002;5.468;2022-07-24T07:03:06;19.70;;;14.00;;
68074;SDS011;54864;52.002;5.468;2022-07-24T07:04:28;19.75;;;13.63;;
68074;SDS011;54864;52.002;5.468;2022-07-24T07:05:50;21.23;;;13.93;;
68074;SDS011;54864;52.002;5.468;2022-07-24T07:07:14;22.17;;;14.02;;
68074;SDS011;54864;52.002;5.468;2022-07-24T07:08:36;21.75;;;13.68;;
68074;SDS011;54864;52.002;5.468;2022-07-24T07:09:58;18.38;;;13.20;;
68074;SDS011;54864;52.002;5.468;2022-07-24T07:11:20;17.42;;;11.63;;
68074;SDS011;54864;52.002;5.468;2022-07-24T07:12:42;20.75;;;13.38;;
68074;SDS011;54864;52.002;5.468;2022-07-24T07:14:04;18.08;;;12.05;;
68074;SDS011;54864;52.002;5.468;2022-07-24T07:15:26;18.67;;;12.60;;
68074;SDS011;54864;52.002;5.468;2022-07-24T07:16:48;17.63;;;11.68;;
68074;SDS011;54864;52.002;5.468;2022-07-24T07:18:10;16.55;;;11.30;;
68074;SDS011;54864;52.002;5.468;2022-07-24T07:19:32;18.42;;;11.35;;
68074;SDS011;54864;52.002;5.468;2022-07-24T07:20:54;13.90;;;10.40;;
68074;SDS011;54864;52.002;5.468;2022-07-24T07:22:18;12.75;;;10.32;;
68074;SDS011;54864;52.002;5.468;2022-07-24T07:23:40;15.37;;;11.03;;
68074;SDS011;54864;52.002;5.468;2022-07-24T07:25:02;14.90;;;9.40;;
68074;SDS011;54864;52.002;5.468;2022-07-24T07:26:24;13.57;;;10.35;;
68074;SDS011;54864;52.002;5.468;2022-07-24T07:27:46;12.18;;;9.10;;
68074;SDS011;54864;52.002;5.468;2022-07-24T07:29:08;13.65;;;9.55;;
68074;SDS011;54864;52.002;5.468;2022-07-24T07:30:30;12.68;;;8.75;;
68074;SDS011;54864;52.002;5.468;2022-07-24T07:31:52;14.40;;;8.60;;
68074;SDS011;54864;52.002;5.468;2022-07-24T07:33:13;9.55;;;7.35;;
68074;SDS011;54864;52.002;5.468;2022-07-24T07:34:35;9.75;;;7.13;;
68074;SDS011;54864;52.002;5.468;2022-07-24T07:35:57;11.82;;;6.38;;
68074;SDS011;54864;52.002;5.468;2022-07-24T07:37:22;7.85;;;5.90;;
68074;SDS011;54864;52.002;5.468;2022-07-24T07:38:44;9.63;;;5.60;;
68074;SDS011;54864;52.002;5.468;2022-07-24T07:40:06;6.28;;;4.25;;
68074;SDS011;54864;52.002;5.468;2022-07-24T07:41:29;6.03;;;4.05;;
68074;SDS011;54864;52.002;5.468;2022-07-24T07:42:51;8.23;;;4.15;;
68074;SDS011;54864;52.002;5.468;2022-07-24T07:44:13;6.07;;;4.03;;
68074;SDS011;54864;52.002;5.468;2022-07-24T07:45:35;5.82;;;3.58;;
68074;SDS011;54864;52.002;5.468;2022-07-24T07:46:57;4.97;;;3.80;;
68074;SDS011;54864;52.002;5.468;2022-07-24T07:48:18;6.50;;;3.90;;
68074;SDS011;54864;52.002;5.468;2022-07-24T07:49:40;7.20;;;4.18;;
68074;SDS011;54864;52.002;5.468;2022-07-24T07:51:02;7.32;;;4.07;;
68074;SDS011;54864;52.002;5.468;2022-07-24T07:52:25;3.92;;;3.33;;
68074;SDS011;54864;52.002;5.468;2022-07-24T07:53:47;4.93;;;3.87;;
68074;SDS011;54864;52.002;5.468;2022-07-24T07:55:10;5.75;;;3.30;;
68074;SDS011;54864;52.002;5.468;2022-07-24T07:56:32;6.78;;;3.63;;
68074;SDS011;54864;52.002;5.468;2022-07-24T07:57:54;3.90;;;3.42;;
68074;SDS011;54864;52.002;5.468;2022-07-24T07:59:16;4.35;;;3.53;;
68074;SDS011;54864;52.002;5.468;2022-07-24T08:00:38;5.25;;;3.28;;
68074;SDS011;54864;52.002;5.468;2022-07-24T08:02:00;5.10;;;3.67;;
68074;SDS011;54864;52.002;5.468;2022-07-24T08:03:22;6.70;;;4.10;;
68074;SDS011;54864;52.002;5.468;2022-07-24T08:04:44;6.88;;;3.90;;